»·PEaware :: N732SG KPSP-KSEE

N732SG :: KPSP-KSEE

FLIGHT INFORMATION

Flight Status: Arrived
Operator: Privately registered:
United States
More flights under this callsign
Pilot: Scott G. (88)
Aircraft: CESSNA 172 SKYHAWK
(C172)
More flights by this aircraft type
Origin: KPSP Palm Springs Intl
United States
Destination: KSEE Gillespie
United States
More flights between these airports :: More routes between these airports
Route: +TRM V208 JLI DCT
File this flight plan on PilotEdge
Remarks:
Altitude:
(Current/Filed)
6,500ft
Speed:
(Current/Filed)
115kts
Departed: 31-May-17 08:35 AM
Arrived: 31-May-17 09:37 AM
Distance/Time
Traveled:
65nm/1:02
Distance/Time
To Go:
Arrived

Flight Plot

Page will automatically refresh every two minutes.

Flight plan parsing failed; only flown route is shown


Map Options




Map Legend


Flown Route
Filed Route
Departure Airport
Arrival Airport
Navaid (VOR, NDB)
Fix

Horizontal Profiles

Position Reports

Time Latitude Longitude Heading Altitude Ground
Speed
31-May-17 08:01 33.829119 -116.510899 264 481ft 0kts
31-May-17 08:02 33.829117 -116.510923 262 481ft 1kts
31-May-17 08:03 33.828930 -116.510929 158 481ft 0kts
31-May-17 08:04 33.828513 -116.509640 60 481ft 1kts
31-May-17 08:05 33.828513 -116.509639 58 481ft 0kts
31-May-17 08:06 33.828513 -116.509639 58 481ft 0kts
31-May-17 08:07 33.828513 -116.509639 58 481ft 0kts
31-May-17 08:08 33.828513 -116.509639 58 481ft 0kts
31-May-17 08:09 33.828513 -116.509639 58 481ft 0kts
31-May-17 08:10 33.828513 -116.509639 58 481ft 0kts
31-May-17 08:11 33.828513 -116.509639 58 481ft 0kts
31-May-17 08:12 33.828513 -116.509639 58 481ft 0kts
31-May-17 08:13 33.828513 -116.509639 58 481ft 0kts
31-May-17 08:14 33.828513 -116.509639 58 481ft 0kts
31-May-17 08:15 33.828513 -116.509639 58 481ft 0kts
31-May-17 08:16 33.828513 -116.509639 58 481ft 0kts
31-May-17 08:17 33.828513 -116.509639 58 481ft 0kts
31-May-17 08:18 33.828513 -116.509639 58 481ft 0kts
31-May-17 08:19 33.828513 -116.509639 58 481ft 0kts
31-May-17 08:20 33.828513 -116.509639 58 481ft 0kts
31-May-17 08:21 33.828513 -116.509639 58 481ft 0kts
31-May-17 08:22 33.828513 -116.509639 58 481ft 0kts
31-May-17 08:23 33.828513 -116.509639 58 481ft 0kts
31-May-17 08:24 33.828513 -116.509639 58 481ft 0kts
31-May-17 08:25 33.828513 -116.509639 58 481ft 0kts
31-May-17 08:26 33.828513 -116.509639 58 481ft 0kts
31-May-17 08:27 33.828513 -116.509639 58 481ft 0kts
31-May-17 08:28 33.828513 -116.509639 58 481ft 0kts
31-May-17 08:29 33.828513 -116.509639 58 481ft 0kts
31-May-17 08:30 33.828513 -116.509639 58 481ft 0kts
31-May-17 08:31 33.828513 -116.509639 58 481ft 0kts
31-May-17 08:32 33.828660 -116.509152 85 481ft 10kts
31-May-17 08:33 33.824462 -116.505081 141 481ft 23kts
31-May-17 08:34 33.819588 -116.500759 142 481ft 24kts
31-May-17 08:35 33.818521 -116.498889 81 481ft 0kts
31-May-17 08:36 33.818810 -116.498333 26 481ft 15kts
31-May-17 08:37 33.826394 -116.504845 323 824ft 67kts
31-May-17 08:38 33.840871 -116.502115 61 1809ft 72kts
31-May-17 08:39 33.832397 -116.483670 135 2710ft 81kts
31-May-17 08:40 33.814423 -116.462940 134 3491ft 95kts
31-May-17 08:41 33.795750 -116.440220 134 4297ft 96kts
31-May-17 08:42 33.777435 -116.422053 191 5034ft 86kts
31-May-17 08:43 33.756249 -116.427480 188 5832ft 81kts
31-May-17 08:44 33.734681 -116.424781 177 6618ft 75kts
31-May-17 08:45 33.714904 -116.412009 140 7039ft 112kts
31-May-17 08:46 33.691891 -116.381508 137 6994ft 125kts
31-May-17 08:47 33.668466 -116.350740 137 6984ft 124kts
31-May-17 08:48 33.651549 -116.316198 122 7136ft 119kts
31-May-17 08:49 33.638987 -116.286247 122 7544ft 113kts
31-May-17 08:50 33.624601 -116.255966 130 8171ft 97kts
31-May-17 08:51 33.609241 -116.232029 140 8787ft 92kts
31-May-17 08:52 33.590776 -116.209631 151 8988ft 111kts
31-May-17 08:53 33.566328 -116.216614 215 8972ft 99kts
31-May-17 08:54 33.544664 -116.234269 216 9031ft 98kts
31-May-17 08:55 33.531633 -116.245318 217 9030ft 98kts
31-May-17 08:56 33.509472 -116.264432 217 9030ft 98kts
31-May-17 08:57 33.487867 -116.283242 217 9030ft 98kts
31-May-17 08:58 33.466161 -116.302198 217 9030ft 98kts
31-May-17 08:59 33.444358 -116.321253 217 9029ft 98kts
31-May-17 09:00 33.422417 -116.340424 217 9029ft 97kts
31-May-17 09:01 33.400772 -116.359333 217 9029ft 97kts
31-May-17 09:02 33.378809 -116.378506 217 9029ft 97kts
31-May-17 09:03 33.356980 -116.397554 217 9029ft 97kts
31-May-17 09:04 33.335136 -116.416595 217 9033ft 97kts
31-May-17 09:05 33.315011 -116.434131 217 9039ft 97kts
31-May-17 09:06 33.293203 -116.453127 217 9047ft 97kts
31-May-17 09:07 33.271402 -116.472095 217 9057ft 97kts
31-May-17 09:08 33.249840 -116.490848 217 9072ft 97kts
31-May-17 09:09 33.228167 -116.509694 218 9084ft 97kts
31-May-17 09:10 33.206299 -116.528696 218 9095ft 97kts
31-May-17 09:11 33.184667 -116.547678 214 9104ft 96kts
31-May-17 09:12 33.162915 -116.566445 214 9111ft 96kts
31-May-17 09:13 33.141714 -116.585314 215 9116ft 96kts
31-May-17 09:14 33.120351 -116.604817 215 9119ft 97kts
31-May-17 09:15 33.098994 -116.624553 215 9119ft 97kts
31-May-17 09:16 33.077765 -116.644603 215 9119ft 98kts
31-May-17 09:17 33.062285 -116.659451 215 9120ft 98kts
31-May-17 09:18 33.040986 -116.680172 215 9120ft 99kts
31-May-17 09:19 33.015495 -116.691893 192 8836ft 106kts
31-May-17 09:20 32.985869 -116.699616 192 8105ft 114kts
31-May-17 09:21 32.953900 -116.707386 192 7105ft 119kts
31-May-17 09:22 32.920822 -116.714331 192 6148ft 119kts
31-May-17 09:23 32.891036 -116.719697 191 6133ft 107kts
31-May-17 09:24 32.860150 -116.726290 192 5882ft 129kts
31-May-17 09:25 32.824454 -116.736519 192 5303ft 133kts
31-May-17 09:26 32.789996 -116.746430 191 5126ft 122kts
31-May-17 09:27 32.765241 -116.734569 132 5127ft 115kts
31-May-17 09:28 32.745827 -116.711829 131 5125ft 116kts
31-May-17 09:29 32.738141 -116.682763 26 5124ft 108kts
31-May-17 09:30 32.761025 -116.703821 311 5127ft 115kts
31-May-17 09:31 32.778142 -116.735976 301 5127ft 117kts
31-May-17 09:32 32.793331 -116.771110 304 5023ft 118kts
31-May-17 09:33 32.797802 -116.811460 282 4466ft 127kts
31-May-17 09:34 32.804341 -116.848078 284 3629ft 106kts
31-May-17 09:35 32.811484 -116.880984 283 2817ft 101kts
31-May-17 09:36 32.816838 -116.910517 282 2090ft 101kts
31-May-17 09:37 32.822510 -116.943281 282 1053ft 95kts
31-May-17 09:38 32.825806 -116.967538 282 394ft 54kts
31-May-17 09:39 32.826141 -116.971639 233 392ft 0kts
31-May-17 09:40 32.826141 -116.971639 233 392ft 0kts
31-May-17 09:41 32.825365 -116.971810 181 392ft 8kts
31-May-17 09:42 32.824522 -116.970789 88 392ft 6kts
31-May-17 09:43 32.824180 -116.969972 182 392ft 0kts
31-May-17 09:44 32.824652 -116.970792 2 392ft 0kts
31-May-17 09:45 32.824652 -116.970792 2 392ft 0kts

Navigation Log

Ident Type
Flight plan parsing failed, navigation log unavailable